sensor_id;sensor_type;location;lat;lon;timestamp;P1;durP1;ratioP1;P2;durP2;ratioP2
15958;SDS011;8078;47.822;9.402;2023-07-29T00:00:57;6.05;;;3.78;;
15958;SDS011;8078;47.822;9.402;2023-07-29T00:03:23;6.35;;;4.07;;
15958;SDS011;8078;47.822;9.402;2023-07-29T00:05:49;5.10;;;3.97;;
15958;SDS011;8078;47.822;9.402;2023-07-29T00:08:14;9.05;;;4.03;;
15958;SDS011;8078;47.822;9.402;2023-07-29T00:10:40;3.80;;;3.42;;
15958;SDS011;8078;47.822;9.402;2023-07-29T00:13:05;5.72;;;3.78;;
15958;SDS011;8078;47.822;9.402;2023-07-29T00:15:32;4.97;;;3.53;;
15958;SDS011;8078;47.822;9.402;2023-07-29T00:17:57;3.80;;;3.45;;
15958;SDS011;8078;47.822;9.402;2023-07-29T00:20:23;4.30;;;3.50;;
15958;SDS011;8078;47.822;9.402;2023-07-29T00:22:49;7.13;;;3.60;;
15958;SDS011;8078;47.822;9.402;2023-07-29T00:25:17;3.50;;;3.17;;
15958;SDS011;8078;47.822;9.402;2023-07-29T00:27:43;4.10;;;3.25;;
15958;SDS011;8078;47.822;9.402;2023-07-29T00:30:08;4.90;;;3.97;;
15958;SDS011;8078;47.822;9.402;2023-07-29T00:32:34;5.20;;;3.72;;
15958;SDS011;8078;47.822;9.402;2023-07-29T00:35:00;4.32;;;3.20;;
15958;SDS011;8078;47.822;9.402;2023-07-29T00:37:27;4.20;;;3.80;;
15958;SDS011;8078;47.822;9.402;2023-07-29T00:39:53;5.25;;;3.78;;
15958;SDS011;8078;47.822;9.402;2023-07-29T00:42:18;4.10;;;3.50;;
15958;SDS011;8078;47.822;9.402;2023-07-29T00:44:44;3.95;;;3.38;;
15958;SDS011;8078;47.822;9.402;2023-07-29T00:47:09;5.45;;;3.97;;
15958;SDS011;8078;47.822;9.402;2023-07-29T00:49:37;3.72;;;3.13;;
15958;SDS011;8078;47.822;9.402;2023-07-29T00:52:03;5.72;;;3.30;;
15958;SDS011;8078;47.822;9.402;2023-07-29T00:54:29;5.22;;;3.65;;
15958;SDS011;8078;47.822;9.402;2023-07-29T00:56:54;5.00;;;3.60;;
15958;SDS011;8078;47.822;9.402;2023-07-29T00:59:20;7.72;;;3.70;;
15958;SDS011;8078;47.822;9.402;2023-07-29T01:01:46;7.63;;;3.42;;
15958;SDS011;8078;47.822;9.402;2023-07-29T01:04:11;6.65;;;3.72;;
15958;SDS011;8078;47.822;9.402;2023-07-29T01:14:47;4.20;;;3.30;;
15958;SDS011;8078;47.822;9.402;2023-07-29T01:17:26;4.20;;;3.25;;
15958;SDS011;8078;47.822;9.402;2023-07-29T01:20:10;4.57;;;3.55;;
15958;SDS011;8078;47.822;9.402;2023-07-29T01:22:39;4.95;;;3.30;;
15958;SDS011;8078;47.822;9.402;2023-07-29T01:25:05;4.70;;;3.30;;
15958;SDS011;8078;47.822;9.402;2023-07-29T01:27:31;3.78;;;3.20;;
15958;SDS011;8078;47.822;9.402;2023-07-29T01:29:57;4.57;;;3.42;;
15958;SDS011;8078;47.822;9.402;2023-07-29T01:37:49;3.53;;;3.17;;
15958;SDS011;8078;47.822;9.402;2023-07-29T01:40:18;4.45;;;3.35;;
15958;SDS011;8078;47.822;9.402;2023-07-29T01:42:45;4.72;;;2.97;;
15958;SDS011;8078;47.822;9.402;2023-07-29T01:45:11;3.20;;;2.90;;
15958;SDS011;8078;47.822;9.402;2023-07-29T01:47:36;4.93;;;3.17;;
15958;SDS011;8078;47.822;9.402;2023-07-29T01:50:05;4.30;;;2.78;;
15958;SDS011;8078;47.822;9.402;2023-07-29T01:52:31;4.55;;;2.88;;
15958;SDS011;8078;47.822;9.402;2023-07-29T01:54:57;4.30;;;2.88;;
15958;SDS011;8078;47.822;9.402;2023-07-29T01:57:22;3.97;;;3.20;;
15958;SDS011;8078;47.822;9.402;2023-07-29T01:59:48;4.45;;;3.22;;
15958;SDS011;8078;47.822;9.402;2023-07-29T02:02:13;5.00;;;3.30;;
15958;SDS011;8078;47.822;9.402;2023-07-29T02:04:39;3.67;;;3.22;;
15958;SDS011;8078;47.822;9.402;2023-07-29T02:07:04;5.40;;;3.30;;
15958;SDS011;8078;47.822;9.402;2023-07-29T02:09:30;4.82;;;3.28;;
15958;SDS011;8078;47.822;9.402;2023-07-29T02:11:56;6.25;;;3.10;;
15958;SDS011;8078;47.822;9.402;2023-07-29T02:14:23;3.67;;;3.08;;
15958;SDS011;8078;47.822;9.402;2023-07-29T02:16:48;4.30;;;3.45;;
15958;SDS011;8078;47.822;9.402;2023-07-29T02:19:15;4.20;;;3.20;;
15958;SDS011;8078;47.822;9.402;2023-07-29T02:21:40;3.40;;;3.10;;
15958;SDS011;8078;47.822;9.402;2023-07-29T02:24:06;4.13;;;3.53;;
15958;SDS011;8078;47.822;9.402;2023-07-29T02:26:32;4.03;;;3.20;;
15958;SDS011;8078;47.822;9.402;2023-07-29T02:28:57;3.45;;;3.15;;
15958;SDS011;8078;47.822;9.402;2023-07-29T02:31:24;5.65;;;3.40;;
15958;SDS011;8078;47.822;9.402;2023-07-29T02:33:50;3.90;;;2.83;;
15958;SDS011;8078;47.822;9.402;2023-07-29T02:36:16;4.57;;;3.10;;
15958;SDS011;8078;47.822;9.402;2023-07-29T02:38:42;3.30;;;3.00;;
15958;SDS011;8078;47.822;9.402;2023-07-29T02:41:08;4.03;;;3.20;;
15958;SDS011;8078;47.822;9.402;2023-07-29T02:43:37;3.50;;;3.10;;
15958;SDS011;8078;47.822;9.402;2023-07-29T02:46:03;4.60;;;3.40;;
15958;SDS011;8078;47.822;9.402;2023-07-29T02:48:29;5.05;;;3.35;;
15958;SDS011;8078;47.822;9.402;2023-07-29T02:50:55;3.78;;;3.17;;
15958;SDS011;8078;47.822;9.402;2023-07-29T02:53:24;4.95;;;3.42;;
15958;SDS011;8078;47.822;9.402;2023-07-29T02:55:50;5.18;;;3.30;;
15958;SDS011;8078;47.822;9.402;2023-07-29T02:58:15;4.53;;;2.95;;
15958;SDS011;8078;47.822;9.402;2023-07-29T03:00:41;5.80;;;3.08;;
15958;SDS011;8078;47.822;9.402;2023-07-29T03:03:10;4.95;;;3.50;;
15958;SDS011;8078;47.822;9.402;2023-07-29T03:05:35;4.05;;;3.65;;
15958;SDS011;8078;47.822;9.402;2023-07-29T03:08:02;5.43;;;3.20;;
15958;SDS011;8078;47.822;9.402;2023-07-29T03:10:28;4.07;;;3.42;;
15958;SDS011;8078;47.822;9.402;2023-07-29T03:12:54;3.97;;;3.30;;
15958;SDS011;8078;47.822;9.402;2023-07-29T03:15:22;7.00;;;4.00;;
15958;SDS011;8078;47.822;9.402;2023-07-29T03:17:49;4.47;;;3.60;;
15958;SDS011;8078;47.822;9.402;2023-07-29T03:20:15;4.18;;;3.45;;
15958;SDS011;8078;47.822;9.402;2023-07-29T03:22:42;4.25;;;3.75;;
15958;SDS011;8078;47.822;9.402;2023-07-29T03:25:08;4.30;;;3.30;;
15958;SDS011;8078;47.822;9.402;2023-07-29T03:27:34;4.85;;;3.60;;
15958;SDS011;8078;47.822;9.402;2023-07-29T03:30:01;4.50;;;3.83;;
15958;SDS011;8078;47.822;9.402;2023-07-29T03:32:30;5.43;;;3.30;;
15958;SDS011;8078;47.822;9.402;2023-07-29T03:34:56;4.95;;;3.80;;
15958;SDS011;8078;47.822;9.402;2023-07-29T03:37:21;4.07;;;3.60;;
15958;SDS011;8078;47.822;9.402;2023-07-29T03:39:47;4.68;;;3.40;;
15958;SDS011;8078;47.822;9.402;2023-07-29T03:42:13;3.72;;;3.22;;
15958;SDS011;8078;47.822;9.402;2023-07-29T03:44:38;5.10;;;3.80;;
15958;SDS011;8078;47.822;9.402;2023-07-29T03:47:05;5.75;;;3.80;;
15958;SDS011;8078;47.822;9.402;2023-07-29T03:49:31;4.03;;;3.25;;
15958;SDS011;8078;47.822;9.402;2023-07-29T03:51:56;3.38;;;3.05;;
15958;SDS011;8078;47.822;9.402;2023-07-29T03:54:22;4.05;;;3.47;;
15958;SDS011;8078;47.822;9.402;2023-07-29T03:56:47;4.40;;;3.40;;
15958;SDS011;8078;47.822;9.402;2023-07-29T03:59:13;5.15;;;3.63;;
15958;SDS011;8078;47.822;9.402;2023-07-29T04:01:39;4.03;;;3.63;;
15958;SDS011;8078;47.822;9.402;2023-07-29T04:04:04;5.07;;;3.85;;
15958;SDS011;8078;47.822;9.402;2023-07-29T04:06:30;5.60;;;4.03;;
15958;SDS011;8078;47.822;9.402;2023-07-29T04:08:56;6.55;;;3.85;;
15958;SDS011;8078;47.822;9.402;2023-07-29T04:11:22;5.03;;;3.80;;
15958;SDS011;8078;47.822;9.402;2023-07-29T04:13:48;6.22;;;4.05;;
15958;SDS011;8078;47.822;9.402;2023-07-29T04:16:13;4.65;;;3.55;;
15958;SDS011;8078;47.822;9.402;2023-07-29T04:18:39;6.28;;;3.50;;
15958;SDS011;8078;47.822;9.402;2023-07-29T04:21:05;5.68;;;4.28;;
15958;SDS011;8078;47.822;9.402;2023-07-29T04:23:30;6.10;;;3.95;;
15958;SDS011;8078;47.822;9.402;2023-07-29T04:25:56;4.38;;;3.33;;
15958;SDS011;8078;47.822;9.402;2023-07-29T04:28:21;7.75;;;3.70;;
15958;SDS011;8078;47.822;9.402;2023-07-29T04:30:47;4.30;;;3.83;;
15958;SDS011;8078;47.822;9.402;2023-07-29T04:33:12;7.75;;;4.07;;
15958;SDS011;8078;47.822;9.402;2023-07-29T04:35:38;5.70;;;4.50;;
15958;SDS011;8078;47.822;9.402;2023-07-29T04:38:03;5.85;;;4.05;;
15958;SDS011;8078;47.822;9.402;2023-07-29T04:40:29;5.82;;;4.57;;
15958;SDS011;8078;47.822;9.402;2023-07-29T04:42:57;8.45;;;5.07;;
15958;SDS011;8078;47.822;9.402;2023-07-29T04:45:27;5.45;;;4.50;;
15958;SDS011;8078;47.822;9.402;2023-07-29T04:47:56;5.03;;;4.38;;
15958;SDS011;8078;47.822;9.402;2023-07-29T04:50:23;5.10;;;4.57;;
15958;SDS011;8078;47.822;9.402;2023-07-29T04:52:48;6.50;;;5.18;;
15958;SDS011;8078;47.822;9.402;2023-07-29T04:55:14;7.50;;;5.30;;
15958;SDS011;8078;47.822;9.402;2023-07-29T04:57:40;8.43;;;6.25;;
15958;SDS011;8078;47.822;9.402;2023-07-29T05:00:05;12.65;;;6.90;;
15958;SDS011;8078;47.822;9.402;2023-07-29T05:02:31;12.55;;;6.93;;
15958;SDS011;8078;47.822;9.402;2023-07-29T05:04:57;12.82;;;7.72;;
15958;SDS011;8078;47.822;9.402;2023-07-29T05:07:22;9.93;;;7.72;;
15958;SDS011;8078;47.822;9.402;2023-07-29T05:09:48;9.27;;;8.10;;
15958;SDS011;8078;47.822;9.402;2023-07-29T05:12:14;54.03;;;11.00;;
15958;SDS011;8078;47.822;9.402;2023-07-29T05:14:39;562.47;;;38.83;;
15958;SDS011;8078;47.822;9.402;2023-07-29T05:17:05;18.58;;;10.90;;
15958;SDS011;8078;47.822;9.402;2023-07-29T05:19:31;15.15;;;9.93;;
15958;SDS011;8078;47.822;9.402;2023-07-29T05:21:56;14.35;;;9.13;;
15958;SDS011;8078;47.822;9.402;2023-07-29T05:24:23;17.50;;;10.85;;
15958;SDS011;8078;47.822;9.402;2023-07-29T05:26:49;733.58;;;52.88;;
15958;SDS011;8078;47.822;9.402;2023-07-29T05:29:14;130.88;;;18.13;;
15958;SDS011;8078;47.822;9.402;2023-07-29T05:31:40;658.13;;;48.20;;
15958;SDS011;8078;47.822;9.402;2023-07-29T05:34:06;1178.43;;;84.40;;
15958;SDS011;8078;47.822;9.402;2023-07-29T05:36:31;1853.75;;;139.52;;
15958;SDS011;8078;47.822;9.402;2023-07-29T05:38:58;1976.43;;;150.10;;
15958;SDS011;8078;47.822;9.402;2023-07-29T05:41:24;1514.53;;;106.78;;
15958;SDS011;8078;47.822;9.402;2023-07-29T05:43:51;804.10;;;59.15;;
15958;SDS011;8078;47.822;9.402;2023-07-29T05:46:16;565.42;;;40.22;;
15958;SDS011;8078;47.822;9.402;2023-07-29T05:48:42;292.85;;;26.35;;
15958;SDS011;8078;47.822;9.402;2023-07-29T05:51:07;272.58;;;26.90;;
15958;SDS011;8078;47.822;9.402;2023-07-29T05:53:33;539.05;;;40.33;;
15958;SDS011;8078;47.822;9.402;2023-07-29T05:55:58;926.10;;;70.57;;
15958;SDS011;8078;47.822;9.402;2023-07-29T05:58:24;1324.50;;;99.97;;
15958;SDS011;8078;47.822;9.402;2023-07-29T06:00:49;1539.97;;;120.13;;
15958;SDS011;8078;47.822;9.402;2023-07-29T06:03:15;436.85;;;36.08;;
15958;SDS011;8078;47.822;9.402;2023-07-29T06:05:40;18.55;;;14.10;;
15958;SDS011;8078;47.822;9.402;2023-07-29T06:08:06;13.55;;;10.95;;
15958;SDS011;8078;47.822;9.402;2023-07-29T06:10:33;13.77;;;9.95;;
15958;SDS011;8078;47.822;9.402;2023-07-29T06:12:59;10.27;;;8.05;;
15958;SDS011;8078;47.822;9.402;2023-07-29T06:15:24;9.98;;;7.65;;
15958;SDS011;8078;47.822;9.402;2023-07-29T06:17:50;7.95;;;7.15;;
15958;SDS011;8078;47.822;9.402;2023-07-29T06:20:15;9.27;;;7.72;;
15958;SDS011;8078;47.822;9.402;2023-07-29T06:22:41;9.95;;;7.47;;
15958;SDS011;8078;47.822;9.402;2023-07-29T06:25:08;9.48;;;7.05;;
15958;SDS011;8078;47.822;9.402;2023-07-29T06:27:33;7.85;;;6.55;;
15958;SDS011;8078;47.822;9.402;2023-07-29T06:29:59;7.78;;;5.72;;
15958;SDS011;8078;47.822;9.402;2023-07-29T06:32:24;11.63;;;6.65;;
15958;SDS011;8078;47.822;9.402;2023-07-29T06:34:51;7.60;;;6.80;;
15958;SDS011;8078;47.822;9.402;2023-07-29T06:37:19;8.38;;;6.50;;
15958;SDS011;8078;47.822;9.402;2023-07-29T06:39:44;8.05;;;6.22;;
15958;SDS011;8078;47.822;9.402;2023-07-29T06:42:10;8.70;;;6.68;;
15958;SDS011;8078;47.822;9.402;2023-07-29T06:44:35;9.13;;;7.28;;
15958;SDS011;8078;47.822;9.402;2023-07-29T06:47:01;8.48;;;7.13;;
15958;SDS011;8078;47.822;9.402;2023-07-29T06:49:26;10.80;;;7.13;;
15958;SDS011;8078;47.822;9.402;2023-07-29T06:51:52;9.38;;;6.43;;
15958;SDS011;8078;47.822;9.402;2023-07-29T06:54:17;8.27;;;6.72;;
15958;SDS011;8078;47.822;9.402;2023-07-29T06:56:43;11.48;;;6.57;;
15958;SDS011;8078;47.822;9.402;2023-07-29T06:59:08;9.13;;;7.25;;
15958;SDS011;8078;47.822;9.402;2023-07-29T07:01:34;6.75;;;6.03;;
15958;SDS011;8078;47.822;9.402;2023-07-29T07:04:00;8.38;;;6.13;;
15958;SDS011;8078;47.822;9.402;2023-07-29T07:06:25;8.77;;;6.15;;
15958;SDS011;8078;47.822;9.402;2023-07-29T07:08:51;7.47;;;5.65;;
15958;SDS011;8078;47.822;9.402;2023-07-29T07:11:17;7.28;;;5.82;;
15958;SDS011;8078;47.822;9.402;2023-07-29T07:13:43;6.68;;;5.80;;
15958;SDS011;8078;47.822;9.402;2023-07-29T07:16:09;8.15;;;5.85;;
15958;SDS011;8078;47.822;9.402;2023-07-29T07:18:34;6.55;;;5.50;;
15958;SDS011;8078;47.822;9.402;2023-07-29T07:21:00;6.13;;;5.30;;
15958;SDS011;8078;47.822;9.402;2023-07-29T07:23:25;7.13;;;6.00;;
15958;SDS011;8078;47.822;9.402;2023-07-29T07:25:51;8.82;;;6.63;;
15958;SDS011;8078;47.822;9.402;2023-07-29T07:28:17;10.20;;;6.63;;
15958;SDS011;8078;47.822;9.402;2023-07-29T07:30:42;7.80;;;6.38;;
15958;SDS011;8078;47.822;9.402;2023-07-29T07:33:08;8.07;;;6.90;;
15958;SDS011;8078;47.822;9.402;2023-07-29T07:35:33;9.05;;;6.78;;
15958;SDS011;8078;47.822;9.402;2023-07-29T07:37:59;8.85;;;7.47;;
15958;SDS011;8078;47.822;9.402;2023-07-29T07:40:27;9.15;;;7.32;;
15958;SDS011;8078;47.822;9.402;2023-07-29T07:42:53;7.93;;;7.00;;
15958;SDS011;8078;47.822;9.402;2023-07-29T07:45:18;10.32;;;7.30;;
15958;SDS011;8078;47.822;9.402;2023-07-29T07:47:44;9.05;;;7.95;;
15958;SDS011;8078;47.822;9.402;2023-07-29T07:50:10;9.73;;;7.20;;
15958;SDS011;8078;47.822;9.402;2023-07-29T07:52:35;9.70;;;7.53;;
15958;SDS011;8078;47.822;9.402;2023-07-29T07:55:01;7.25;;;6.25;;
15958;SDS011;8078;47.822;9.402;2023-07-29T07:57:27;7.85;;;6.72;;
15958;SDS011;8078;47.822;9.402;2023-07-29T07:59:52;7.68;;;6.63;;
15958;SDS011;8078;47.822;9.402;2023-07-29T08:02:18;6.50;;;5.80;;
15958;SDS011;8078;47.822;9.402;2023-07-29T08:04:44;9.90;;;6.32;;
15958;SDS011;8078;47.822;9.402;2023-07-29T08:07:09;7.43;;;6.20;;
15958;SDS011;8078;47.822;9.402;2023-07-29T08:09:35;9.88;;;6.22;;
15958;SDS011;8078;47.822;9.402;2023-07-29T08:12:00;7.80;;;6.70;;
15958;SDS011;8078;47.822;9.402;2023-07-29T08:14:26;8.98;;;7.35;;
15958;SDS011;8078;47.822;9.402;2023-07-29T08:16:52;13.25;;;7.53;;
15958;SDS011;8078;47.822;9.402;2023-07-29T08:19:17;7.63;;;6.50;;
15958;SDS011;8078;47.822;9.402;2023-07-29T08:21:43;9.20;;;6.60;;
15958;SDS011;8078;47.822;9.402;2023-07-29T08:24:08;8.85;;;6.60;;
15958;SDS011;8078;47.822;9.402;2023-07-29T08:26:34;7.70;;;6.18;;
15958;SDS011;8078;47.822;9.402;2023-07-29T08:28:59;8.38;;;6.53;;
15958;SDS011;8078;47.822;9.402;2023-07-29T08:31:25;8.52;;;6.28;;
15958;SDS011;8078;47.822;9.402;2023-07-29T08:33:50;8.57;;;6.30;;
15958;SDS011;8078;47.822;9.402;2023-07-29T08:36:16;8.18;;;5.88;;
15958;SDS011;8078;47.822;9.402;2023-07-29T08:38:41;9.13;;;7.05;;
15958;SDS011;8078;47.822;9.402;2023-07-29T08:41:11;10.20;;;6.65;;
15958;SDS011;8078;47.822;9.402;2023-07-29T08:43:47;7.90;;;6.60;;
15958;SDS011;8078;47.822;9.402;2023-07-29T08:46:26;10.10;;;6.43;;
15958;SDS011;8078;47.822;9.402;2023-07-29T08:48:53;7.18;;;6.00;;
15958;SDS011;8078;47.822;9.402;2023-07-29T08:51:20;7.57;;;6.15;;
15958;SDS011;8078;47.822;9.402;2023-07-29T08:53:48;7.93;;;6.03;;
15958;SDS011;8078;47.822;9.402;2023-07-29T08:56:15;6.88;;;5.95;;
15958;SDS011;8078;47.822;9.402;2023-07-29T08:58:41;8.02;;;5.70;;
15958;SDS011;8078;47.822;9.402;2023-07-29T09:01:07;7.75;;;5.90;;
15958;SDS011;8078;47.822;9.402;2023-07-29T09:03:33;8.32;;;5.50;;
15958;SDS011;8078;47.822;9.402;2023-07-29T09:05:58;6.70;;;5.38;;
15958;SDS011;8078;47.822;9.402;2023-07-29T09:08:25;8.23;;;6.05;;
15958;SDS011;8078;47.822;9.402;2023-07-29T09:10:51;7.07;;;5.47;;
15958;SDS011;8078;47.822;9.402;2023-07-29T09:13:18;6.07;;;5.30;;
15958;SDS011;8078;47.822;9.402;2023-07-29T09:15:44;6.43;;;5.30;;
15958;SDS011;8078;47.822;9.402;2023-07-29T09:18:11;5.82;;;4.85;;
15958;SDS011;8078;47.822;9.402;2023-07-29T09:20:39;4.93;;;4.40;;
15958;SDS011;8078;47.822;9.402;2023-07-29T09:23:07;7.03;;;5.05;;
15958;SDS011;8078;47.822;9.402;2023-07-29T09:25:35;5.32;;;4.75;;
15958;SDS011;8078;47.822;9.402;2023-07-29T09:28:02;4.93;;;4.43;;
15958;SDS011;8078;47.822;9.402;2023-07-29T09:30:33;8.10;;;4.45;;
15958;SDS011;8078;47.822;9.402;2023-07-29T09:32:59;6.03;;;4.13;;
15958;SDS011;8078;47.822;9.402;2023-07-29T09:35:28;7.25;;;5.00;;
15958;SDS011;8078;47.822;9.402;2023-07-29T09:37:55;5.90;;;4.43;;
15958;SDS011;8078;47.822;9.402;2023-07-29T09:40:21;5.97;;;4.55;;
15958;SDS011;8078;47.822;9.402;2023-07-29T09:42:50;7.25;;;4.57;;
15958;SDS011;8078;47.822;9.402;2023-07-29T09:45:21;4.72;;;4.00;;
15958;SDS011;8078;47.822;9.402;2023-07-29T09:47:51;4.78;;;4.15;;
15958;SDS011;8078;47.822;9.402;2023-07-29T09:50:17;5.72;;;4.38;;
15958;SDS011;8078;47.822;9.402;2023-07-29T09:52:44;5.22;;;4.53;;
15958;SDS011;8078;47.822;9.402;2023-07-29T09:55:11;6.35;;;4.35;;
15958;SDS011;8078;47.822;9.402;2023-07-29T09:57:38;4.47;;;4.07;;
15958;SDS011;8078;47.822;9.402;2023-07-29T10:00:05;6.72;;;4.28;;
15958;SDS011;8078;47.822;9.402;2023-07-29T10:02:35;5.28;;;3.85;;
15958;SDS011;8078;47.822;9.402;2023-07-29T10:05:05;6.93;;;3.60;;
15958;SDS011;8078;47.822;9.402;2023-07-29T10:07:33;4.15;;;3.75;;
15958;SDS011;8078;47.822;9.402;2023-07-29T10:09:59;5.30;;;4.20;;
15958;SDS011;8078;47.822;9.402;2023-07-29T10:12:27;5.07;;;3.70;;
15958;SDS011;8078;47.822;9.402;2023-07-29T10:14:55;4.70;;;3.55;;
15958;SDS011;8078;47.822;9.402;2023-07-29T10:17:25;6.00;;;3.67;;
15958;SDS011;8078;47.822;9.402;2023-07-29T10:19:51;3.83;;;3.40;;
15958;SDS011;8078;47.822;9.402;2023-07-29T10:22:20;4.30;;;3.30;;
15958;SDS011;8078;47.822;9.402;2023-07-29T10:24:46;4.55;;;3.90;;
15958;SDS011;8078;47.822;9.402;2023-07-29T10:27:13;4.65;;;3.35;;
15958;SDS011;8078;47.822;9.402;2023-07-29T10:29:42;4.90;;;3.70;;
15958;SDS011;8078;47.822;9.402;2023-07-29T10:32:10;4.75;;;3.85;;
15958;SDS011;8078;47.822;9.402;2023-07-29T10:34:36;5.63;;;3.63;;
15958;SDS011;8078;47.822;9.402;2023-07-29T10:37:03;6.20;;;3.55;;
15958;SDS011;8078;47.822;9.402;2023-07-29T10:39:37;4.90;;;3.20;;
15958;SDS011;8078;47.822;9.402;2023-07-29T10:42:05;3.83;;;3.42;;
15958;SDS011;8078;47.822;9.402;2023-07-29T10:47:12;5.45;;;3.17;;
15958;SDS011;8078;47.822;9.402;2023-07-29T10:49:58;4.20;;;3.47;;
15958;SDS011;8078;47.822;9.402;2023-07-29T10:52:28;5.53;;;3.35;;
15958;SDS011;8078;47.822;9.402;2023-07-29T10:55:22;3.92;;;3.22;;
15958;SDS011;8078;47.822;9.402;2023-07-29T10:58:03;3.58;;;3.03;;
15958;SDS011;8078;47.822;9.402;2023-07-29T11:00:31;5.68;;;3.08;;
15958;SDS011;8078;47.822;9.402;2023-07-29T11:03:01;3.60;;;3.20;;
15958;SDS011;8078;47.822;9.402;2023-07-29T11:05:41;3.25;;;2.90;;
15958;SDS011;8078;47.822;9.402;2023-07-29T11:11:02;4.72;;;3.13;;
15958;SDS011;8078;47.822;9.402;2023-07-29T11:13:29;3.75;;;3.40;;
15958;SDS011;8078;47.822;9.402;2023-07-29T11:15:56;6.00;;;3.40;;
15958;SDS011;8078;47.822;9.402;2023-07-29T11:18:25;3.60;;;3.13;;
15958;SDS011;8078;47.822;9.402;2023-07-29T11:20:56;4.22;;;3.30;;
15958;SDS011;8078;47.822;9.402;2023-07-29T11:23:32;5.22;;;3.00;;
15958;SDS011;8078;47.822;9.402;2023-07-29T11:26:00;4.88;;;3.05;;
15958;SDS011;8078;47.822;9.402;2023-07-29T11:28:26;2.97;;;2.72;;
15958;SDS011;8078;47.822;9.402;2023-07-29T11:30:53;3.50;;;3.10;;
15958;SDS011;8078;47.822;9.402;2023-07-29T11:33:20;4.10;;;3.53;;
15958;SDS011;8078;47.822;9.402;2023-07-29T11:35:47;3.97;;;2.92;;
15958;SDS011;8078;47.822;9.402;2023-07-29T11:38:19;4.13;;;3.17;;
15958;SDS011;8078;47.822;9.402;2023-07-29T11:40:55;3.97;;;3.33;;
15958;SDS011;8078;47.822;9.402;2023-07-29T11:43:22;3.25;;;2.95;;
15958;SDS011;8078;47.822;9.402;2023-07-29T11:45:47;3.35;;;3.05;;
15958;SDS011;8078;47.822;9.402;2023-07-29T11:48:13;5.55;;;3.40;;
15958;SDS011;8078;47.822;9.402;2023-07-29T11:50:38;3.85;;;3.35;;
15958;SDS011;8078;47.822;9.402;2023-07-29T11:53:04;4.82;;;3.30;;
15958;SDS011;8078;47.822;9.402;2023-07-29T11:55:30;5.28;;;3.55;;
15958;SDS011;8078;47.822;9.402;2023-07-29T11:57:55;3.53;;;3.17;;
15958;SDS011;8078;47.822;9.402;2023-07-29T12:00:22;3.58;;;3.20;;
15958;SDS011;8078;47.822;9.402;2023-07-29T12:02:48;3.40;;;3.10;;
15958;SDS011;8078;47.822;9.402;2023-07-29T12:05:14;4.88;;;3.10;;
15958;SDS011;8078;47.822;9.402;2023-07-29T12:07:41;3.58;;;2.90;;
15958;SDS011;8078;47.822;9.402;2023-07-29T12:10:08;4.88;;;3.03;;
15958;SDS011;8078;47.822;9.402;2023-07-29T12:12:44;4.00;;;3.10;;
15958;SDS011;8078;47.822;9.402;2023-07-29T12:15:11;3.30;;;3.00;;
15958;SDS011;8078;47.822;9.402;2023-07-29T12:17:40;5.30;;;3.25;;
15958;SDS011;8078;47.822;9.402;2023-07-29T12:20:08;3.55;;;3.25;;
15958;SDS011;8078;47.822;9.402;2023-07-29T12:22:35;3.63;;;3.13;;
15958;SDS011;8078;47.822;9.402;2023-07-29T12:25:01;4.57;;;3.35;;
15958;SDS011;8078;47.822;9.402;2023-07-29T12:27:27;3.53;;;3.20;;
15958;SDS011;8078;47.822;9.402;2023-07-29T12:29:56;4.80;;;3.22;;
15958;SDS011;8078;47.822;9.402;2023-07-29T12:32:25;3.45;;;2.92;;
15958;SDS011;8078;47.822;9.402;2023-07-29T12:34:52;3.50;;;3.15;;
15958;SDS011;8078;47.822;9.402;2023-07-29T12:37:18;4.47;;;3.22;;
15958;SDS011;8078;47.822;9.402;2023-07-29T12:39:44;4.60;;;3.40;;
15958;SDS011;8078;47.822;9.402;2023-07-29T12:42:10;3.47;;;3.08;;
15958;SDS011;8078;47.822;9.402;2023-07-29T12:44:35;3.78;;;3.28;;
15958;SDS011;8078;47.822;9.402;2023-07-29T12:47:02;3.40;;;3.10;;
15958;SDS011;8078;47.822;9.402;2023-07-29T12:49:29;3.85;;;3.45;;
15958;SDS011;8078;47.822;9.402;2023-07-29T12:51:58;4.75;;;3.38;;
15958;SDS011;8078;47.822;9.402;2023-07-29T12:54:25;6.03;;;3.72;;
15958;SDS011;8078;47.822;9.402;2023-07-29T12:56:51;5.65;;;4.30;;
15958;SDS011;8078;47.822;9.402;2023-07-29T12:59:17;7.55;;;4.03;;
15958;SDS011;8078;47.822;9.402;2023-07-29T13:01:43;7.22;;;2.05;;
15958;SDS011;8078;47.822;9.402;2023-07-29T13:04:11;1.67;;;1.40;;
15958;SDS011;8078;47.822;9.402;2023-07-29T13:06:37;3.97;;;1.70;;
15958;SDS011;8078;47.822;9.402;2023-07-29T13:09:03;1.20;;;1.10;;
15958;SDS011;8078;47.822;9.402;2023-07-29T13:11:30;2.53;;;2.33;;
15958;SDS011;8078;47.822;9.402;2023-07-29T13:13:57;2.92;;;2.63;;
15958;SDS011;8078;47.822;9.402;2023-07-29T13:16:23;3.95;;;2.53;;
15958;SDS011;8078;47.822;9.402;2023-07-29T13:18:49;2.80;;;2.53;;
15958;SDS011;8078;47.822;9.402;2023-07-29T13:21:15;2.45;;;2.22;;
15958;SDS011;8078;47.822;9.402;2023-07-29T13:23:40;4.10;;;2.40;;
15958;SDS011;8078;47.822;9.402;2023-07-29T13:26:06;2.78;;;2.47;;
15958;SDS011;8078;47.822;9.402;2023-07-29T13:28:31;4.35;;;2.65;;
15958;SDS011;8078;47.822;9.402;2023-07-29T13:30:57;3.85;;;2.83;;
15958;SDS011;8078;47.822;9.402;2023-07-29T13:33:23;3.42;;;2.78;;
15958;SDS011;8078;47.822;9.402;2023-07-29T13:35:48;3.58;;;2.60;;
15958;SDS011;8078;47.822;9.402;2023-07-29T13:38:14;3.80;;;3.03;;
15958;SDS011;8078;47.822;9.402;2023-07-29T13:40:40;3.35;;;2.88;;
15958;SDS011;8078;47.822;9.402;2023-07-29T13:43:05;3.17;;;2.88;;
15958;SDS011;8078;47.822;9.402;2023-07-29T13:45:31;2.85;;;2.55;;
15958;SDS011;8078;47.822;9.402;2023-07-29T13:47:56;4.10;;;3.30;;
15958;SDS011;8078;47.822;9.402;2023-07-29T13:50:22;4.03;;;3.17;;
15958;SDS011;8078;47.822;9.402;2023-07-29T13:52:47;4.13;;;3.22;;
15958;SDS011;8078;47.822;9.402;2023-07-29T13:55:13;4.55;;;3.65;;
15958;SDS011;8078;47.822;9.402;2023-07-29T13:57:39;3.90;;;3.25;;
15958;SDS011;8078;47.822;9.402;2023-07-29T14:00:07;4.15;;;3.70;;
15958;SDS011;8078;47.822;9.402;2023-07-29T14:02:33;4.88;;;3.28;;
15958;SDS011;8078;47.822;9.402;2023-07-29T14:04:59;3.92;;;3.50;;
15958;SDS011;8078;47.822;9.402;2023-07-29T14:07:24;4.10;;;3.70;;
15958;SDS011;8078;47.822;9.402;2023-07-29T14:09:50;5.28;;;3.88;;
15958;SDS011;8078;47.822;9.402;2023-07-29T14:12:15;4.00;;;3.60;;
15958;SDS011;8078;47.822;9.402;2023-07-29T14:14:41;4.72;;;3.55;;
15958;SDS011;8078;47.822;9.402;2023-07-29T14:17:07;5.03;;;3.80;;
15958;SDS011;8078;47.822;9.402;2023-07-29T14:19:33;4.53;;;3.50;;
15958;SDS011;8078;47.822;9.402;2023-07-29T14:21:59;3.60;;;3.17;;
15958;SDS011;8078;47.822;9.402;2023-07-29T14:24:25;2.30;;;2.10;;
15958;SDS011;8078;47.822;9.402;2023-07-29T14:26:50;3.75;;;2.50;;
15958;SDS011;8078;47.822;9.402;2023-07-29T14:29:16;2.90;;;2.60;;
15958;SDS011;8078;47.822;9.402;2023-07-29T14:31:42;2.70;;;2.50;;
15958;SDS011;8078;47.822;9.402;2023-07-29T14:34:07;3.72;;;2.55;;
15958;SDS011;8078;47.822;9.402;2023-07-29T14:36:35;3.22;;;2.30;;
15958;SDS011;8078;47.822;9.402;2023-07-29T14:39:01;2.58;;;2.22;;
15958;SDS011;8078;47.822;9.402;2023-07-29T14:41:27;2.47;;;2.28;;
15958;SDS011;8078;47.822;9.402;2023-07-29T14:43:52;2.80;;;2.60;;
15958;SDS011;8078;47.822;9.402;2023-07-29T14:46:18;2.65;;;2.42;;
15958;SDS011;8078;47.822;9.402;2023-07-29T14:48:43;3.45;;;2.47;;
15958;SDS011;8078;47.822;9.402;2023-07-29T14:51:10;2.50;;;2.30;;
15958;SDS011;8078;47.822;9.402;2023-07-29T14:53:35;3.67;;;2.65;;
15958;SDS011;8078;47.822;9.402;2023-07-29T14:56:01;5.40;;;2.55;;
15958;SDS011;8078;47.822;9.402;2023-07-29T14:58:26;4.32;;;3.00;;
15958;SDS011;8078;47.822;9.402;2023-07-29T15:00:52;3.65;;;2.92;;
15958;SDS011;8078;47.822;9.402;2023-07-29T15:03:18;3.53;;;3.22;;
15958;SDS011;8078;47.822;9.402;2023-07-29T15:05:43;3.80;;;3.20;;
15958;SDS011;8078;47.822;9.402;2023-07-29T15:08:09;3.67;;;3.38;;
15958;SDS011;8078;47.822;9.402;2023-07-29T15:10:35;5.10;;;3.97;;
15958;SDS011;8078;47.822;9.402;2023-07-29T15:13:02;5.50;;;4.13;;